Shawsville, VA

7:05 PM EST on March 01, 2015 (GMT -0500)
Near High School | Change Station
CLOSE
Current Station
Personal Weather Station
Location: Elliston, VA
Elevation: 1286 ft
Nearby Weather Stations

Elev 1286 ft 37.21 °N, 80.24 °W | Updated 32 seconds ago

Overcast
Overcast
34.7 °F
Feels Like 35 °F
N
0.0
Wind Variable Wind from NE

Today
High -- | Low -- °F
--% Chance of Precip.
Yesterday
High -- | Low -- °F
Precip. -- in
6:52 AM 6:14 PM
Waxing Gibbous, 88% visible
Pressure 30.29 in
Visibility 10.0 miles
Clouds Scattered Clouds 2300 ft
Mostly Cloudy 7500 ft
Mostly Cloudy 9500 ft
Windchill 35 °F
Dew Point 34 °F
Humidity 98%
Rainfall 0.00 in
Snow Depth Not available.
UV 0 out of 12
Pollen 1.60 out of 12
Air Quality Not available.
Flu Activity Not available.
METAR KBCB 012355Z AUTO 00000KT 10SM SCT023 BKN075 BKN095 03/M02 A3029 RMK AO2 T00261018 10080 20026

More Conditions Fewer Conditions

Pressure 30.29 in
Visibility 10.0 miles
Clouds Scattered Clouds 2300 ft
Mostly Cloudy 7500 ft
Mostly Cloudy 9500 ft
Windchill 35 °F
Dew Point 34 °F
Humidity 98%
Rainfall 0.00 in
Snow Depth Not available.
UV 0 out of 12
Pollen 1.60 out of 12
Air Quality Not available.
Flu Activity Not available.
METAR KBCB 012355Z AUTO 00000KT 10SM SCT023 BKN075 BKN095 03/M02 A3029 RMK AO2 T00261018 10080 20026

More Conditions Fewer Conditions

10-Day Weather Forecast

Almanac

Astronomy

Mar. 01, 2015 Rise Set
Actual Time
Civil Twilight
Nautical Twilight
Astronomical Twilight
Moon
Length of Visible Light
Length of Day
Tomorrow will be .
, % of the Moon is Illuminated

Today's Extremes

State Highs State Lows

Community

WunderPhotos

Upload Photos

1,801,634 photos uploaded!

WunderBlogs® & News

Nearby

Air Quality

  Air Quality AQ Index Pollutant
Not available.

Snow Depth

Station Depth Elevation

Earthquake Activity

City Distance Mag. Time & Date
Minimum magnitude displayed is 2.5.

Coastal Water Temperatures

Place Temperature

Nearby Weather Stations